Terminal Aerodrome Forecast
Issued by NWS Duluth, MN

Home | Current Version | Previous Version | Text Only | Print | Product List | Glossary On
Versions: 1 2 3 4 5 6 7 8 9 10 11 12 13 14 15 16 17 18 19 20 21 22 23 24
912
FTUS43 KDLH 100537
TAFDLH
TAF
KDLH 100537Z 1006/1106 31009KT P6SM VCSH OVC025
     FM101600 30004KT P6SM SCT025
     FM110200 11004KT P6SM VCSH BKN025 OVC050=

USA.gov is the U.S. government's official web portal to all federal, state and local government web resources and services.